Terminal Aerodrome Forecast
Issued by NWS

Home | Current Version | Previous Version | Text Only | Print | Product List | Glossary On
Versions: 1 2 3 4 5 6 7 8 9 10 11 12 13 14 15 16 17 18 19 20 21 22 23 24 25 26 27 28 29 30 31 32 33 34 35 36 37 38 39 40
000
FTUS43 KDDC 271137
TAFGCK
TAF
KGCK 271137Z 2712/2812 12008KT 2SM -SN BR OVC015
      TEMPO 2712/2714 1 1/2SM -SN BR OVC012
     FM271500 16015KT P6SM -SN OVC022
     FM272300 14013KT P6SM OVC014=

USA.gov is the U.S. government's official web portal to all federal, state and local government web resources and services.